sensor_id;sensor_type;location;lat;lon;timestamp;P1;durP1;ratioP1;P2;durP2;ratioP2
21299;SDS011;10809;49.476;11.016;2022-07-23T00:01:44;4.60;;;4.00;;
21299;SDS011;10809;49.476;11.016;2022-07-23T00:04:17;4.72;;;4.03;;
21299;SDS011;10809;49.476;11.016;2022-07-23T00:06:47;6.03;;;5.00;;
21299;SDS011;10809;49.476;11.016;2022-07-23T00:09:18;5.82;;;4.35;;
21299;SDS011;10809;49.476;11.016;2022-07-23T00:11:48;4.50;;;4.10;;
21299;SDS011;10809;49.476;11.016;2022-07-23T00:14:18;4.50;;;4.10;;
21299;SDS011;10809;49.476;11.016;2022-07-23T00:16:49;6.88;;;4.60;;
21299;SDS011;10809;49.476;11.016;2022-07-23T00:19:19;7.57;;;4.13;;
21299;SDS011;10809;49.476;11.016;2022-07-23T00:21:49;5.53;;;3.92;;
21299;SDS011;10809;49.476;11.016;2022-07-23T00:24:20;7.32;;;5.15;;
21299;SDS011;10809;49.476;11.016;2022-07-23T00:26:50;7.07;;;5.38;;
21299;SDS011;10809;49.476;11.016;2022-07-23T00:29:21;4.97;;;4.50;;
21299;SDS011;10809;49.476;11.016;2022-07-23T00:31:51;5.68;;;4.80;;
21299;SDS011;10809;49.476;11.016;2022-07-23T00:34:21;7.90;;;4.68;;
21299;SDS011;10809;49.476;11.016;2022-07-23T00:36:52;5.38;;;4.88;;
21299;SDS011;10809;49.476;11.016;2022-07-23T00:39:23;6.22;;;4.65;;
21299;SDS011;10809;49.476;11.016;2022-07-23T00:42:01;12.27;;;5.18;;
21299;SDS011;10809;49.476;11.016;2022-07-23T00:44:31;7.85;;;5.50;;
21299;SDS011;10809;49.476;11.016;2022-07-23T00:47:01;7.88;;;5.82;;
21299;SDS011;10809;49.476;11.016;2022-07-23T00:49:32;7.72;;;6.80;;
21299;SDS011;10809;49.476;11.016;2022-07-23T00:52:02;6.82;;;6.13;;
21299;SDS011;10809;49.476;11.016;2022-07-23T00:54:33;10.02;;;6.32;;
21299;SDS011;10809;49.476;11.016;2022-07-23T00:57:10;6.75;;;6.15;;
21299;SDS011;10809;49.476;11.016;2022-07-23T00:59:41;8.18;;;6.45;;
21299;SDS011;10809;49.476;11.016;2022-07-23T01:02:12;7.15;;;6.45;;
21299;SDS011;10809;49.476;11.016;2022-07-23T01:04:42;7.38;;;5.90;;
21299;SDS011;10809;49.476;11.016;2022-07-23T01:07:13;5.15;;;4.65;;
21299;SDS011;10809;49.476;11.016;2022-07-23T01:09:44;5.60;;;5.10;;
21299;SDS011;10809;49.476;11.016;2022-07-23T01:12:15;12.90;;;5.32;;
21299;SDS011;10809;49.476;11.016;2022-07-23T01:14:55;7.30;;;5.00;;
21299;SDS011;10809;49.476;11.016;2022-07-23T01:17:31;7.30;;;4.75;;
21299;SDS011;10809;49.476;11.016;2022-07-23T01:20:02;9.57;;;4.93;;
21299;SDS011;10809;49.476;11.016;2022-07-23T01:22:34;5.57;;;5.07;;
21299;SDS011;10809;49.476;11.016;2022-07-23T01:25:04;6.03;;;5.18;;
21299;SDS011;10809;49.476;11.016;2022-07-23T01:27:35;5.13;;;4.55;;
21299;SDS011;10809;49.476;11.016;2022-07-23T01:30:14;7.97;;;4.50;;
21299;SDS011;10809;49.476;11.016;2022-07-23T01:32:45;5.95;;;5.45;;
21299;SDS011;10809;49.476;11.016;2022-07-23T01:35:15;8.18;;;4.78;;
21299;SDS011;10809;49.476;11.016;2022-07-23T01:37:49;6.53;;;4.78;;
21299;SDS011;10809;49.476;11.016;2022-07-23T01:40:21;6.88;;;4.78;;
21299;SDS011;10809;49.476;11.016;2022-07-23T01:42:52;9.00;;;5.10;;
21299;SDS011;10809;49.476;11.016;2022-07-23T01:45:23;8.20;;;5.07;;
21299;SDS011;10809;49.476;11.016;2022-07-23T01:47:55;8.65;;;5.95;;
21299;SDS011;10809;49.476;11.016;2022-07-23T01:50:26;5.50;;;4.18;;
21299;SDS011;10809;49.476;11.016;2022-07-23T01:53:14;12.68;;;4.72;;
21299;SDS011;10809;49.476;11.016;2022-07-23T01:55:45;13.00;;;5.75;;
21299;SDS011;10809;49.476;11.016;2022-07-23T01:58:16;5.10;;;4.57;;
21299;SDS011;10809;49.476;11.016;2022-07-23T02:00:46;6.60;;;5.18;;
21299;SDS011;10809;49.476;11.016;2022-07-23T02:03:17;5.75;;;5.10;;
21299;SDS011;10809;49.476;11.016;2022-07-23T02:05:59;8.43;;;4.55;;
21299;SDS011;10809;49.476;11.016;2022-07-23T02:08:32;5.18;;;4.47;;
21299;SDS011;10809;49.476;11.016;2022-07-23T02:11:05;5.35;;;4.90;;
21299;SDS011;10809;49.476;11.016;2022-07-23T02:13:37;5.97;;;4.70;;
21299;SDS011;10809;49.476;11.016;2022-07-23T02:16:07;5.00;;;4.10;;
21299;SDS011;10809;49.476;11.016;2022-07-23T02:18:37;5.68;;;5.10;;
21299;SDS011;10809;49.476;11.016;2022-07-23T02:21:08;5.13;;;4.68;;
21299;SDS011;10809;49.476;11.016;2022-07-23T02:23:42;5.43;;;4.63;;
21299;SDS011;10809;49.476;11.016;2022-07-23T02:26:13;7.20;;;5.13;;
21299;SDS011;10809;49.476;11.016;2022-07-23T02:28:43;8.45;;;5.03;;
21299;SDS011;10809;49.476;11.016;2022-07-23T02:31:18;8.07;;;5.43;;
21299;SDS011;10809;49.476;11.016;2022-07-23T02:33:49;6.60;;;5.18;;
21299;SDS011;10809;49.476;11.016;2022-07-23T02:36:21;6.18;;;5.38;;
21299;SDS011;10809;49.476;11.016;2022-07-23T02:38:51;5.40;;;4.90;;
21299;SDS011;10809;49.476;11.016;2022-07-23T02:41:22;6.07;;;5.25;;
21299;SDS011;10809;49.476;11.016;2022-07-23T02:43:52;6.88;;;5.15;;
21299;SDS011;10809;49.476;11.016;2022-07-23T02:46:23;7.95;;;5.55;;
21299;SDS011;10809;49.476;11.016;2022-07-23T02:48:54;5.88;;;5.32;;
21299;SDS011;10809;49.476;11.016;2022-07-23T02:51:24;6.55;;;5.88;;
21299;SDS011;10809;49.476;11.016;2022-07-23T02:54:00;9.13;;;5.60;;
21299;SDS011;10809;49.476;11.016;2022-07-23T02:56:30;5.13;;;4.72;;
21299;SDS011;10809;49.476;11.016;2022-07-23T02:59:01;7.50;;;5.82;;
21299;SDS011;10809;49.476;11.016;2022-07-23T03:01:31;5.93;;;5.43;;
21299;SDS011;10809;49.476;11.016;2022-07-23T03:04:09;11.32;;;5.38;;
21299;SDS011;10809;49.476;11.016;2022-07-23T03:06:46;6.93;;;6.20;;
21299;SDS011;10809;49.476;11.016;2022-07-23T03:09:20;6.35;;;5.78;;
21299;SDS011;10809;49.476;11.016;2022-07-23T03:11:50;7.57;;;5.90;;
21299;SDS011;10809;49.476;11.016;2022-07-23T03:14:23;8.70;;;6.43;;
21299;SDS011;10809;49.476;11.016;2022-07-23T03:16:57;5.90;;;5.07;;
21299;SDS011;10809;49.476;11.016;2022-07-23T03:19:29;7.05;;;5.65;;
21299;SDS011;10809;49.476;11.016;2022-07-23T03:22:03;7.85;;;6.53;;
21299;SDS011;10809;49.476;11.016;2022-07-23T03:24:34;6.30;;;5.65;;
21299;SDS011;10809;49.476;11.016;2022-07-23T03:27:28;6.70;;;6.00;;
21299;SDS011;10809;49.476;11.016;2022-07-23T03:29:59;6.38;;;5.78;;
21299;SDS011;10809;49.476;11.016;2022-07-23T03:32:30;6.75;;;5.95;;
21299;SDS011;10809;49.476;11.016;2022-07-23T03:35:01;8.05;;;5.82;;
21299;SDS011;10809;49.476;11.016;2022-07-23T03:37:32;7.18;;;6.43;;
21299;SDS011;10809;49.476;11.016;2022-07-23T03:40:03;7.03;;;5.97;;
21299;SDS011;10809;49.476;11.016;2022-07-23T03:42:34;7.68;;;6.28;;
21299;SDS011;10809;49.476;11.016;2022-07-23T03:45:07;7.75;;;6.15;;
21299;SDS011;10809;49.476;11.016;2022-07-23T03:47:37;8.68;;;5.47;;
21299;SDS011;10809;49.476;11.016;2022-07-23T03:50:09;14.07;;;6.28;;
21299;SDS011;10809;49.476;11.016;2022-07-23T03:52:40;8.00;;;7.13;;
21299;SDS011;10809;49.476;11.016;2022-07-23T03:55:10;11.10;;;6.22;;
21299;SDS011;10809;49.476;11.016;2022-07-23T03:57:40;10.13;;;6.63;;
21299;SDS011;10809;49.476;11.016;2022-07-23T04:00:11;7.03;;;6.00;;
21299;SDS011;10809;49.476;11.016;2022-07-23T04:02:47;7.97;;;5.85;;
21299;SDS011;10809;49.476;11.016;2022-07-23T04:05:17;6.65;;;5.75;;
21299;SDS011;10809;49.476;11.016;2022-07-23T04:07:53;7.40;;;5.60;;
21299;SDS011;10809;49.476;11.016;2022-07-23T04:10:24;6.80;;;6.20;;
21299;SDS011;10809;49.476;11.016;2022-07-23T04:12:57;7.85;;;5.85;;
21299;SDS011;10809;49.476;11.016;2022-07-23T04:15:27;6.22;;;5.63;;
21299;SDS011;10809;49.476;11.016;2022-07-23T04:17:58;5.28;;;4.85;;
21299;SDS011;10809;49.476;11.016;2022-07-23T04:20:36;6.43;;;5.70;;
21299;SDS011;10809;49.476;11.016;2022-07-23T04:23:07;5.97;;;5.38;;
21299;SDS011;10809;49.476;11.016;2022-07-23T04:25:39;7.57;;;5.65;;
21299;SDS011;10809;49.476;11.016;2022-07-23T04:28:10;6.32;;;5.35;;
21299;SDS011;10809;49.476;11.016;2022-07-23T04:30:40;6.38;;;5.78;;
21299;SDS011;10809;49.476;11.016;2022-07-23T04:33:12;5.88;;;5.28;;
21299;SDS011;10809;49.476;11.016;2022-07-23T04:35:44;5.15;;;4.65;;
21299;SDS011;10809;49.476;11.016;2022-07-23T04:38:22;6.35;;;5.20;;
21299;SDS011;10809;49.476;11.016;2022-07-23T04:40:55;5.97;;;5.10;;
21299;SDS011;10809;49.476;11.016;2022-07-23T04:43:25;6.00;;;5.50;;
21299;SDS011;10809;49.476;11.016;2022-07-23T04:45:57;5.85;;;5.05;;
21299;SDS011;10809;49.476;11.016;2022-07-23T04:48:29;5.57;;;5.07;;
21299;SDS011;10809;49.476;11.016;2022-07-23T04:51:11;6.57;;;5.30;;
21299;SDS011;10809;49.476;11.016;2022-07-23T04:53:41;5.70;;;4.85;;
21299;SDS011;10809;49.476;11.016;2022-07-23T04:56:12;5.15;;;4.65;;
21299;SDS011;10809;49.476;11.016;2022-07-23T04:58:42;5.15;;;4.65;;
21299;SDS011;10809;49.476;11.016;2022-07-23T05:01:13;4.50;;;4.10;;
21299;SDS011;10809;49.476;11.016;2022-07-23T05:03:47;4.75;;;4.35;;
21299;SDS011;10809;49.476;11.016;2022-07-23T05:06:21;4.72;;;4.32;;
21299;SDS011;10809;49.476;11.016;2022-07-23T05:08:52;4.95;;;3.65;;
21299;SDS011;10809;49.476;11.016;2022-07-23T05:11:26;3.67;;;3.38;;
21299;SDS011;10809;49.476;11.016;2022-07-23T05:13:56;4.82;;;3.78;;
21299;SDS011;10809;49.476;11.016;2022-07-23T05:16:27;3.40;;;3.10;;
21299;SDS011;10809;49.476;11.016;2022-07-23T05:19:03;4.03;;;3.63;;
21299;SDS011;10809;49.476;11.016;2022-07-23T05:21:36;3.85;;;3.55;;
21299;SDS011;10809;49.476;11.016;2022-07-23T05:24:07;3.63;;;3.33;;
21299;SDS011;10809;49.476;11.016;2022-07-23T05:26:38;3.70;;;3.40;;
21299;SDS011;10809;49.476;11.016;2022-07-23T05:29:08;6.03;;;3.75;;
21299;SDS011;10809;49.476;11.016;2022-07-23T05:31:39;4.05;;;3.65;;
21299;SDS011;10809;49.476;11.016;2022-07-23T05:34:10;4.03;;;3.72;;
21299;SDS011;10809;49.476;11.016;2022-07-23T05:36:41;3.40;;;3.10;;
21299;SDS011;10809;49.476;11.016;2022-07-23T05:39:12;3.00;;;2.80;;
21299;SDS011;10809;49.476;11.016;2022-07-23T05:41:45;3.80;;;3.10;;
21299;SDS011;10809;49.476;11.016;2022-07-23T05:44:15;3.00;;;2.80;;
21299;SDS011;10809;49.476;11.016;2022-07-23T05:46:48;4.00;;;2.60;;
21299;SDS011;10809;49.476;11.016;2022-07-23T05:49:23;2.88;;;2.67;;
21299;SDS011;10809;49.476;11.016;2022-07-23T05:51:54;3.22;;;3.03;;
21299;SDS011;10809;49.476;11.016;2022-07-23T05:54:34;2.92;;;2.60;;
21299;SDS011;10809;49.476;11.016;2022-07-23T05:57:05;3.60;;;2.30;;
21299;SDS011;10809;49.476;11.016;2022-07-23T05:59:36;2.30;;;2.10;;
21299;SDS011;10809;49.476;11.016;2022-07-23T06:02:06;3.95;;;3.05;;
21299;SDS011;10809;49.476;11.016;2022-07-23T06:04:37;2.40;;;2.30;;
21299;SDS011;10809;49.476;11.016;2022-07-23T06:07:26;3.00;;;2.70;;
21299;SDS011;10809;49.476;11.016;2022-07-23T06:09:56;3.40;;;2.55;;
21299;SDS011;10809;49.476;11.016;2022-07-23T06:12:26;3.35;;;2.60;;
21299;SDS011;10809;49.476;11.016;2022-07-23T06:15:01;3.33;;;2.47;;
21299;SDS011;10809;49.476;11.016;2022-07-23T06:17:31;3.38;;;2.78;;
21299;SDS011;10809;49.476;11.016;2022-07-23T06:20:06;2.58;;;2.38;;
21299;SDS011;10809;49.476;11.016;2022-07-23T06:22:40;3.53;;;2.58;;
21299;SDS011;10809;49.476;11.016;2022-07-23T06:25:10;3.00;;;2.70;;
21299;SDS011;10809;49.476;11.016;2022-07-23T06:27:41;5.82;;;3.38;;
21299;SDS011;10809;49.476;11.016;2022-07-23T06:30:11;3.45;;;3.15;;
21299;SDS011;10809;49.476;11.016;2022-07-23T06:32:42;4.78;;;2.85;;
21299;SDS011;10809;49.476;11.016;2022-07-23T06:35:14;3.10;;;2.75;;
21299;SDS011;10809;49.476;11.016;2022-07-23T06:37:45;2.92;;;2.72;;
21299;SDS011;10809;49.476;11.016;2022-07-23T06:40:15;2.92;;;2.40;;
21299;SDS011;10809;49.476;11.016;2022-07-23T06:42:46;4.00;;;2.65;;
21299;SDS011;10809;49.476;11.016;2022-07-23T06:45:21;4.22;;;3.15;;
21299;SDS011;10809;49.476;11.016;2022-07-23T06:47:52;2.42;;;2.30;;
21299;SDS011;10809;49.476;11.016;2022-07-23T06:50:26;3.08;;;2.83;;
21299;SDS011;10809;49.476;11.016;2022-07-23T06:52:56;3.28;;;3.08;;
21299;SDS011;10809;49.476;11.016;2022-07-23T06:55:30;3.55;;;3.00;;
21299;SDS011;10809;49.476;11.016;2022-07-23T06:58:01;3.88;;;2.97;;
21299;SDS011;10809;49.476;11.016;2022-07-23T07:00:31;3.17;;;2.97;;
21299;SDS011;10809;49.476;11.016;2022-07-23T07:03:02;3.30;;;3.00;;
21299;SDS011;10809;49.476;11.016;2022-07-23T07:05:32;3.20;;;2.90;;
21299;SDS011;10809;49.476;11.016;2022-07-23T07:08:03;3.70;;;3.40;;
21299;SDS011;10809;49.476;11.016;2022-07-23T07:10:40;5.65;;;4.03;;
21299;SDS011;10809;49.476;11.016;2022-07-23T07:13:10;4.18;;;3.80;;
21299;SDS011;10809;49.476;11.016;2022-07-23T07:15:43;6.68;;;4.30;;
21299;SDS011;10809;49.476;11.016;2022-07-23T07:18:17;4.55;;;3.88;;
21299;SDS011;10809;49.476;11.016;2022-07-23T07:20:48;4.40;;;4.00;;
21299;SDS011;10809;49.476;11.016;2022-07-23T07:23:18;3.88;;;3.58;;
21299;SDS011;10809;49.476;11.016;2022-07-23T07:25:50;5.75;;;3.65;;
21299;SDS011;10809;49.476;11.016;2022-07-23T07:28:20;4.30;;;3.90;;
21299;SDS011;10809;49.476;11.016;2022-07-23T07:31:00;4.40;;;3.72;;
21299;SDS011;10809;49.476;11.016;2022-07-23T07:33:30;4.10;;;3.70;;
21299;SDS011;10809;49.476;11.016;2022-07-23T07:36:01;4.25;;;3.70;;
21299;SDS011;10809;49.476;11.016;2022-07-23T07:38:31;3.95;;;3.55;;
21299;SDS011;10809;49.476;11.016;2022-07-23T07:41:01;5.45;;;4.30;;
21299;SDS011;10809;49.476;11.016;2022-07-23T07:43:32;4.38;;;3.95;;
21299;SDS011;10809;49.476;11.016;2022-07-23T07:46:03;4.30;;;3.65;;
21299;SDS011;10809;49.476;11.016;2022-07-23T07:48:37;6.00;;;3.88;;
21299;SDS011;10809;49.476;11.016;2022-07-23T07:51:07;4.35;;;3.95;;
21299;SDS011;10809;49.476;11.016;2022-07-23T07:53:38;4.05;;;3.72;;
21299;SDS011;10809;49.476;11.016;2022-07-23T07:56:08;4.68;;;3.97;;
21299;SDS011;10809;49.476;11.016;2022-07-23T07:58:38;6.05;;;4.25;;
21299;SDS011;10809;49.476;11.016;2022-07-23T08:01:09;4.20;;;3.80;;
21299;SDS011;10809;49.476;11.016;2022-07-23T08:03:39;6.95;;;4.55;;
21299;SDS011;10809;49.476;11.016;2022-07-23T08:09:26;4.57;;;4.13;;
21299;SDS011;10809;49.476;11.016;2022-07-23T08:11:56;6.90;;;4.32;;
21299;SDS011;10809;49.476;11.016;2022-07-23T08:14:27;6.40;;;4.32;;
21299;SDS011;10809;49.476;11.016;2022-07-23T08:16:57;5.72;;;4.85;;
21299;SDS011;10809;49.476;11.016;2022-07-23T08:19:31;6.43;;;4.07;;
21299;SDS011;10809;49.476;11.016;2022-07-23T08:22:02;5.53;;;4.90;;
21299;SDS011;10809;49.476;11.016;2022-07-23T08:24:32;3.88;;;3.58;;
21299;SDS011;10809;49.476;11.016;2022-07-23T08:27:02;5.10;;;4.43;;
21299;SDS011;10809;49.476;11.016;2022-07-23T08:29:33;12.13;;;4.35;;
21299;SDS011;10809;49.476;11.016;2022-07-23T08:32:03;4.18;;;3.88;;
21299;SDS011;10809;49.476;11.016;2022-07-23T08:34:34;4.50;;;3.67;;
21299;SDS011;10809;49.476;11.016;2022-07-23T08:37:05;4.32;;;3.67;;
21299;SDS011;10809;49.476;11.016;2022-07-23T08:39:35;4.22;;;3.88;;
21299;SDS011;10809;49.476;11.016;2022-07-23T08:42:08;3.80;;;3.50;;
21299;SDS011;10809;49.476;11.016;2022-07-23T08:44:40;3.42;;;3.10;;
21299;SDS011;10809;49.476;11.016;2022-07-23T08:47:18;3.67;;;3.38;;
21299;SDS011;10809;49.476;11.016;2022-07-23T08:49:48;3.88;;;3.35;;
21299;SDS011;10809;49.476;11.016;2022-07-23T08:52:18;4.32;;;3.92;;
21299;SDS011;10809;49.476;11.016;2022-07-23T08:54:49;3.70;;;3.30;;
21299;SDS011;10809;49.476;11.016;2022-07-23T08:57:20;3.63;;;3.30;;
21299;SDS011;10809;49.476;11.016;2022-07-23T08:59:50;5.53;;;3.45;;
21299;SDS011;10809;49.476;11.016;2022-07-23T09:02:20;4.18;;;3.22;;
21299;SDS011;10809;49.476;11.016;2022-07-23T09:04:51;3.10;;;2.88;;
21299;SDS011;10809;49.476;11.016;2022-07-23T09:07:21;5.07;;;3.83;;
21299;SDS011;10809;49.476;11.016;2022-07-23T09:10:04;3.90;;;3.60;;
21299;SDS011;10809;49.476;11.016;2022-07-23T09:15:31;3.28;;;2.97;;
21299;SDS011;10809;49.476;11.016;2022-07-23T09:31:49;3.25;;;3.03;;
21299;SDS011;10809;49.476;11.016;2022-07-23T09:34:34;4.28;;;3.75;;
21299;SDS011;10809;49.476;11.016;2022-07-23T09:37:09;4.18;;;3.75;;
21299;SDS011;10809;49.476;11.016;2022-07-23T09:39:44;4.72;;;3.60;;
21299;SDS011;10809;49.476;11.016;2022-07-23T09:42:21;4.75;;;3.75;;
21299;SDS011;10809;49.476;11.016;2022-07-23T09:44:56;6.13;;;3.67;;
21299;SDS011;10809;49.476;11.016;2022-07-23T09:47:29;5.10;;;4.05;;
21299;SDS011;10809;49.476;11.016;2022-07-23T09:52:42;6.57;;;3.75;;
21299;SDS011;10809;49.476;11.016;2022-07-23T09:55:17;4.45;;;3.80;;
21299;SDS011;10809;49.476;11.016;2022-07-23T09:57:48;7.65;;;4.00;;
21299;SDS011;10809;49.476;11.016;2022-07-23T10:00:25;4.50;;;3.10;;
21299;SDS011;10809;49.476;11.016;2022-07-23T10:02:56;6.30;;;3.70;;
21299;SDS011;10809;49.476;11.016;2022-07-23T10:05:34;3.85;;;3.55;;
21299;SDS011;10809;49.476;11.016;2022-07-23T10:08:25;4.40;;;4.00;;
21299;SDS011;10809;49.476;11.016;2022-07-23T10:11:14;5.15;;;3.45;;
21299;SDS011;10809;49.476;11.016;2022-07-23T10:13:58;4.63;;;3.60;;
21299;SDS011;10809;49.476;11.016;2022-07-23T10:16:43;5.35;;;3.70;;
21299;SDS011;10809;49.476;11.016;2022-07-23T10:19:14;6.25;;;4.30;;
21299;SDS011;10809;49.476;11.016;2022-07-23T10:21:49;4.53;;;3.60;;
21299;SDS011;10809;49.476;11.016;2022-07-23T10:30:32;9.50;;;4.43;;
21299;SDS011;10809;49.476;11.016;2022-07-23T10:33:26;9.57;;;4.18;;
21299;SDS011;10809;49.476;11.016;2022-07-23T10:36:19;5.57;;;4.38;;
21299;SDS011;10809;49.476;11.016;2022-07-23T10:44:11;5.45;;;4.05;;
21299;SDS011;10809;49.476;11.016;2022-07-23T10:46:56;4.82;;;4.35;;
21299;SDS011;10809;49.476;11.016;2022-07-23T10:55:40;5.45;;;3.90;;
21299;SDS011;10809;49.476;11.016;2022-07-23T10:58:23;7.45;;;4.40;;
21299;SDS011;10809;49.476;11.016;2022-07-23T11:04:48;6.70;;;4.65;;
21299;SDS011;10809;49.476;11.016;2022-07-23T11:07:22;4.75;;;4.25;;
21299;SDS011;10809;49.476;11.016;2022-07-23T11:09:53;5.50;;;4.68;;
21299;SDS011;10809;49.476;11.016;2022-07-23T11:17:39;4.97;;;4.45;;
21299;SDS011;10809;49.476;11.016;2022-07-23T11:23:03;4.43;;;3.75;;
21299;SDS011;10809;49.476;11.016;2022-07-23T11:25:34;4.40;;;3.55;;
21299;SDS011;10809;49.476;11.016;2022-07-23T11:28:10;8.50;;;3.70;;
21299;SDS011;10809;49.476;11.016;2022-07-23T11:30:44;3.50;;;3.20;;
21299;SDS011;10809;49.476;11.016;2022-07-23T11:33:16;3.80;;;3.50;;
21299;SDS011;10809;49.476;11.016;2022-07-23T11:36:00;4.25;;;3.85;;
21299;SDS011;10809;49.476;11.016;2022-07-23T11:38:36;4.10;;;3.72;;
21299;SDS011;10809;49.476;11.016;2022-07-23T11:41:08;4.25;;;3.70;;
21299;SDS011;10809;49.476;11.016;2022-07-23T11:43:40;3.92;;;3.60;;
21299;SDS011;10809;49.476;11.016;2022-07-23T11:46:10;5.85;;;4.53;;
21299;SDS011;10809;49.476;11.016;2022-07-23T11:48:41;4.80;;;3.58;;
21299;SDS011;10809;49.476;11.016;2022-07-23T11:51:11;4.47;;;4.07;;
21299;SDS011;10809;49.476;11.016;2022-07-23T11:53:55;4.05;;;3.75;;
21299;SDS011;10809;49.476;11.016;2022-07-23T11:56:36;4.28;;;3.63;;
21299;SDS011;10809;49.476;11.016;2022-07-23T11:59:06;4.35;;;4.05;;
21299;SDS011;10809;49.476;11.016;2022-07-23T12:01:37;3.60;;;3.28;;
21299;SDS011;10809;49.476;11.016;2022-07-23T12:04:07;4.28;;;3.90;;
21299;SDS011;10809;49.476;11.016;2022-07-23T12:09:11;4.10;;;3.42;;
21299;SDS011;10809;49.476;11.016;2022-07-23T12:12:00;3.78;;;3.47;;
21299;SDS011;10809;49.476;11.016;2022-07-23T12:14:31;4.18;;;3.78;;
21299;SDS011;10809;49.476;11.016;2022-07-23T12:17:10;5.68;;;3.83;;
21299;SDS011;10809;49.476;11.016;2022-07-23T12:19:42;4.32;;;3.92;;
21299;SDS011;10809;49.476;11.016;2022-07-23T12:22:15;4.88;;;4.38;;
21299;SDS011;10809;49.476;11.016;2022-07-23T12:24:52;4.35;;;3.95;;
21299;SDS011;10809;49.476;11.016;2022-07-23T12:27:24;6.07;;;3.70;;
21299;SDS011;10809;49.476;11.016;2022-07-23T12:29:55;5.90;;;4.05;;
21299;SDS011;10809;49.476;11.016;2022-07-23T12:32:26;4.53;;;4.13;;
21299;SDS011;10809;49.476;11.016;2022-07-23T12:35:17;4.65;;;4.25;;
21299;SDS011;10809;49.476;11.016;2022-07-23T12:37:49;6.90;;;4.05;;
21299;SDS011;10809;49.476;11.016;2022-07-23T12:40:29;4.82;;;4.38;;
21299;SDS011;10809;49.476;11.016;2022-07-23T12:43:22;5.97;;;3.75;;
21299;SDS011;10809;49.476;11.016;2022-07-23T12:45:56;3.42;;;3.22;;
21299;SDS011;10809;49.476;11.016;2022-07-23T12:48:55;3.50;;;3.30;;
21299;SDS011;10809;49.476;11.016;2022-07-23T12:51:27;5.03;;;4.18;;
21299;SDS011;10809;49.476;11.016;2022-07-23T12:54:07;4.30;;;3.88;;
21299;SDS011;10809;49.476;11.016;2022-07-23T12:56:39;4.82;;;3.70;;
21299;SDS011;10809;49.476;11.016;2022-07-23T12:59:11;3.88;;;3.60;;
21299;SDS011;10809;49.476;11.016;2022-07-23T13:01:53;3.20;;;3.00;;
21299;SDS011;10809;49.476;11.016;2022-07-23T13:04:25;3.60;;;3.30;;
21299;SDS011;10809;49.476;11.016;2022-07-23T13:06:57;5.18;;;4.18;;
21299;SDS011;10809;49.476;11.016;2022-07-23T13:09:31;6.25;;;3.63;;
21299;SDS011;10809;49.476;11.016;2022-07-23T13:12:03;3.88;;;3.50;;
21299;SDS011;10809;49.476;11.016;2022-07-23T13:14:37;4.47;;;4.15;;
21299;SDS011;10809;49.476;11.016;2022-07-23T13:17:07;3.40;;;3.20;;
21299;SDS011;10809;49.476;11.016;2022-07-23T13:19:38;3.95;;;3.65;;
21299;SDS011;10809;49.476;11.016;2022-07-23T13:22:08;4.28;;;3.92;;
21299;SDS011;10809;49.476;11.016;2022-07-23T13:24:38;3.83;;;3.55;;
21299;SDS011;10809;49.476;11.016;2022-07-23T13:27:12;6.32;;;3.70;;
21299;SDS011;10809;49.476;11.016;2022-07-23T13:29:42;3.58;;;3.28;;
21299;SDS011;10809;49.476;11.016;2022-07-23T13:32:12;4.15;;;3.75;;
21299;SDS011;10809;49.476;11.016;2022-07-23T13:34:43;3.97;;;3.67;;
21299;SDS011;10809;49.476;11.016;2022-07-23T13:37:13;3.42;;;3.13;;
21299;SDS011;10809;49.476;11.016;2022-07-23T13:39:47;3.92;;;3.63;;
21299;SDS011;10809;49.476;11.016;2022-07-23T13:42:18;4.00;;;3.70;;
21299;SDS011;10809;49.476;11.016;2022-07-23T13:47:41;7.07;;;3.58;;
21299;SDS011;10809;49.476;11.016;2022-07-23T13:50:11;4.03;;;3.72;;
21299;SDS011;10809;49.476;11.016;2022-07-23T13:52:42;4.22;;;3.65;;
21299;SDS011;10809;49.476;11.016;2022-07-23T13:55:13;8.15;;;3.65;;
21299;SDS011;10809;49.476;11.016;2022-07-23T13:57:43;3.58;;;3.33;;
21299;SDS011;10809;49.476;11.016;2022-07-23T14:00:13;4.40;;;3.95;;
21299;SDS011;10809;49.476;11.016;2022-07-23T14:02:44;3.97;;;3.65;;
21299;SDS011;10809;49.476;11.016;2022-07-23T14:05:15;3.92;;;3.53;;
21299;SDS011;10809;49.476;11.016;2022-07-23T14:07:45;4.95;;;4.40;;
21299;SDS011;10809;49.476;11.016;2022-07-23T14:10:17;5.50;;;4.15;;
21299;SDS011;10809;49.476;11.016;2022-07-23T14:12:49;4.10;;;3.65;;
21299;SDS011;10809;49.476;11.016;2022-07-23T14:15:20;4.15;;;3.75;;
21299;SDS011;10809;49.476;11.016;2022-07-23T14:17:51;4.43;;;4.03;;
21299;SDS011;10809;49.476;11.016;2022-07-23T14:20:21;4.40;;;4.00;;
21299;SDS011;10809;49.476;11.016;2022-07-23T14:22:52;3.78;;;3.30;;
21299;SDS011;10809;49.476;11.016;2022-07-23T14:25:25;4.03;;;3.72;;
21299;SDS011;10809;49.476;11.016;2022-07-23T14:27:56;3.38;;;3.17;;
21299;SDS011;10809;49.476;11.016;2022-07-23T14:30:26;7.50;;;4.10;;
21299;SDS011;10809;49.476;11.016;2022-07-23T14:32:57;3.63;;;3.33;;
21299;SDS011;10809;49.476;11.016;2022-07-23T14:35:30;3.90;;;3.58;;
21299;SDS011;10809;49.476;11.016;2022-07-23T14:38:01;3.65;;;3.40;;
21299;SDS011;10809;49.476;11.016;2022-07-23T14:40:31;3.72;;;3.42;;
21299;SDS011;10809;49.476;11.016;2022-07-23T14:43:02;3.58;;;3.28;;
21299;SDS011;10809;49.476;11.016;2022-07-23T14:45:32;4.47;;;4.07;;
21299;SDS011;10809;49.476;11.016;2022-07-23T14:48:02;3.85;;;3.55;;
21299;SDS011;10809;49.476;11.016;2022-07-23T14:50:33;3.55;;;3.35;;
21299;SDS011;10809;49.476;11.016;2022-07-23T14:53:03;3.85;;;3.47;;
21299;SDS011;10809;49.476;11.016;2022-07-23T14:55:34;5.57;;;3.45;;
21299;SDS011;10809;49.476;11.016;2022-07-23T14:58:04;3.72;;;3.47;;
21299;SDS011;10809;49.476;11.016;2022-07-23T15:00:35;4.32;;;3.95;;
21299;SDS011;10809;49.476;11.016;2022-07-23T15:03:05;3.78;;;3.20;;
21299;SDS011;10809;49.476;11.016;2022-07-23T15:05:35;4.35;;;3.50;;
21299;SDS011;10809;49.476;11.016;2022-07-23T15:08:06;4.03;;;3.72;;
21299;SDS011;10809;49.476;11.016;2022-07-23T15:10:36;3.90;;;3.60;;
21299;SDS011;10809;49.476;11.016;2022-07-23T15:13:06;4.30;;;3.90;;
21299;SDS011;10809;49.476;11.016;2022-07-23T15:15:40;5.40;;;3.17;;
21299;SDS011;10809;49.476;11.016;2022-07-23T15:18:24;3.17;;;2.97;;
21299;SDS011;10809;49.476;11.016;2022-07-23T15:20:54;3.75;;;3.45;;
21299;SDS011;10809;49.476;11.016;2022-07-23T15:23:25;3.28;;;2.95;;
21299;SDS011;10809;49.476;11.016;2022-07-23T15:25:55;5.05;;;3.10;;
21299;SDS011;10809;49.476;11.016;2022-07-23T15:28:26;4.55;;;3.60;;
21299;SDS011;10809;49.476;11.016;2022-07-23T15:30:59;3.30;;;3.00;;
21299;SDS011;10809;49.476;11.016;2022-07-23T15:33:29;3.17;;;2.88;;
21299;SDS011;10809;49.476;11.016;2022-07-23T15:35:59;3.60;;;3.30;;
21299;SDS011;10809;49.476;11.016;2022-07-23T15:38:30;3.28;;;2.97;;
21299;SDS011;10809;49.476;11.016;2022-07-23T15:41:06;8.73;;;3.60;;
21299;SDS011;10809;49.476;11.016;2022-07-23T15:43:38;5.60;;;2.75;;
21299;SDS011;10809;49.476;11.016;2022-07-23T15:46:09;3.97;;;3.65;;
21299;SDS011;10809;49.476;11.016;2022-07-23T15:48:41;4.10;;;3.08;;
21299;SDS011;10809;49.476;11.016;2022-07-23T15:51:11;4.03;;;3.65;;
21299;SDS011;10809;49.476;11.016;2022-07-23T15:53:41;3.40;;;3.10;;
21299;SDS011;10809;49.476;11.016;2022-07-23T15:56:12;3.55;;;3.33;;
21299;SDS011;10809;49.476;11.016;2022-07-23T15:58:44;3.67;;;3.38;;
21299;SDS011;10809;49.476;11.016;2022-07-23T16:01:17;6.35;;;3.83;;
21299;SDS011;10809;49.476;11.016;2022-07-23T16:03:48;7.35;;;3.78;;